createdAt,value
2022-08-30T00:04:11.730Z,100.00
2022-08-30T00:09:14.122Z,100.00
2022-08-30T00:14:16.348Z,100.00
2022-08-30T00:19:18.466Z,100.00
2022-08-30T00:24:20.623Z,100.00
2022-08-30T00:29:23.772Z,100.00
2022-08-30T00:34:25.939Z,100.00
2022-08-30T00:39:28.176Z,100.00
2022-08-30T00:44:30.398Z,100.00
2022-08-30T00:49:34.502Z,100.00
2022-08-30T00:54:37.547Z,100.00
2022-08-30T00:59:40.937Z,100.00
2022-08-30T01:04:44.334Z,100.00
2022-08-30T01:09:46.988Z,100.00
2022-08-30T01:14:49.736Z,100.00
2022-08-30T01:19:58.718Z,100.00
2022-08-30T01:25:02.472Z,100.00
2022-08-30T01:30:06.692Z,100.00
2022-08-30T01:35:10.772Z,100.00
2022-08-30T01:40:17.425Z,100.00
2022-08-30T01:45:19.644Z,100.00
2022-08-30T01:50:22.020Z,100.00
2022-08-30T01:55:24.242Z,100.00
2022-08-30T02:00:26.688Z,100.00
2022-08-30T02:05:28.858Z,100.00
2022-08-30T02:10:31.265Z,100.00
2022-08-30T02:15:41.617Z,100.00
2022-08-30T02:20:44.159Z,100.00
2022-08-30T02:25:46.761Z,100.00
2022-08-30T02:30:49.106Z,100.00
2022-08-30T02:35:51.326Z,100.00
2022-08-30T02:40:53.758Z,100.00
2022-08-30T02:45:56.089Z,100.00
2022-08-30T02:51:05.750Z,100.00
2022-08-30T02:56:13.617Z,100.00
2022-08-30T03:01:16.619Z,100.00
2022-08-30T03:06:18.991Z,100.00
2022-08-30T03:11:21.232Z,100.00
2022-08-30T03:16:23.539Z,100.00
2022-08-30T03:21:25.758Z,100.00
2022-08-30T03:26:27.932Z,100.00
2022-08-30T03:31:30.139Z,100.00
2022-08-30T03:36:33.862Z,100.00
2022-08-30T03:41:36.078Z,100.00
2022-08-30T03:46:39.056Z,100.00
2022-08-30T03:51:41.288Z,100.00
2022-08-30T03:56:44.000Z,100.00
2022-08-30T04:01:46.253Z,100.00
2022-08-30T04:06:49.223Z,100.00
2022-08-30T04:11:51.382Z,100.00
2022-08-30T04:16:53.582Z,100.00
2022-08-30T04:21:58.630Z,100.00
2022-08-30T04:27:00.948Z,100.00
2022-08-30T04:32:03.473Z,100.00
2022-08-30T04:37:05.735Z,100.00
2022-08-30T04:42:12.082Z,100.00
2022-08-30T04:47:15.433Z,100.00
2022-08-30T04:52:17.627Z,100.00
2022-08-30T04:57:19.846Z,100.00
2022-08-30T05:02:23.662Z,100.00
2022-08-30T05:07:31.071Z,100.00
2022-08-30T05:12:33.277Z,100.00
2022-08-30T05:17:37.670Z,100.00
2022-08-30T05:23:19.479Z,100.00
2022-08-30T05:33:51.283Z,100.00
2022-08-30T05:38:54.428Z,100.00
2022-08-30T05:44:00.708Z,100.00
2022-08-30T05:49:05.022Z,100.00
2022-08-30T05:54:07.373Z,100.00
2022-08-30T05:59:09.807Z,100.00
2022-08-30T06:04:13.145Z,100.00
2022-08-30T06:09:15.343Z,100.00
2022-08-30T06:14:17.425Z,100.00
2022-08-30T06:19:19.849Z,100.00
2022-08-30T06:24:35.693Z,100.00
2022-08-30T06:29:44.262Z,100.00
2022-08-30T06:34:46.528Z,100.00
2022-08-30T06:39:48.698Z,100.00
2022-08-30T06:44:50.865Z,100.00
2022-08-30T06:50:00.593Z,100.00
2022-08-30T06:55:03.219Z,100.00
2022-08-30T07:00:08.594Z,100.00
2022-08-30T07:05:13.129Z,100.00
2022-08-30T07:10:17.805Z,100.00
2022-08-30T07:15:20.076Z,100.00
2022-08-30T07:20:22.242Z,100.00
2022-08-30T07:25:24.639Z,100.00
2022-08-30T07:30:26.830Z,100.00
2022-08-30T07:35:29.123Z,100.00
2022-08-30T07:40:34.517Z,100.00
2022-08-30T07:45:38.380Z,100.00
2022-08-30T07:50:44.211Z,94.33
2022-08-30T07:55:46.378Z,91.75
2022-08-30T08:00:48.750Z,82.36
2022-08-30T08:05:50.907Z,74.89
2022-08-30T08:10:53.105Z,74.69
2022-08-30T08:15:55.330Z,72.07
2022-08-30T08:20:58.877Z,68.31
2022-08-30T08:26:01.924Z,67.92
2022-08-30T08:31:13.140Z,64.84
2022-08-30T08:36:15.855Z,64.64
2022-08-30T08:41:29.848Z,69.89
2022-08-30T08:47:05.723Z,76.24
2022-08-30T08:52:17.087Z,69.72
2022-08-30T08:57:22.711Z,62.55
2022-08-30T09:02:29.907Z,60.69
2022-08-30T09:07:38.450Z,60.68
2022-08-30T09:12:40.926Z,53.24
2022-08-30T09:17:50.543Z,52.96
2022-08-30T09:22:53.269Z,51.03
2022-08-30T09:28:11.092Z,48.25
2022-08-30T09:33:20.800Z,47.04
2022-08-30T09:38:31.331Z,47.78
2022-08-30T09:43:35.237Z,53.67
2022-08-30T09:48:42.521Z,49.23
2022-08-30T09:54:18.276Z,45.80
2022-08-30T10:00:03.773Z,44.85
2022-08-30T10:05:44.187Z,44.09
2022-08-30T10:10:52.039Z,44.61
2022-08-30T10:16:02.811Z,43.23
2022-08-30T10:21:17.055Z,44.93
2022-08-30T10:26:36.369Z,41.59
2022-08-30T10:31:49.220Z,41.38
2022-08-30T10:36:55.332Z,41.00
2022-08-30T10:42:08.796Z,42.98
2022-08-30T10:47:36.292Z,44.78
2022-08-30T10:52:56.680Z,43.17
2022-08-30T10:58:05.174Z,42.63
2022-08-30T11:03:25.834Z,42.23
2022-08-30T11:08:49.735Z,45.57
2022-08-30T11:13:57.138Z,49.61
2022-08-30T11:19:00.078Z,45.12
2022-08-30T11:24:07.848Z,41.88
2022-08-30T11:29:35.314Z,42.85
2022-08-30T11:34:59.526Z,41.66
2022-08-30T11:40:06.023Z,41.46
2022-08-30T11:45:25.445Z,40.35
2022-08-30T11:50:55.141Z,38.76
2022-08-30T11:56:10.315Z,39.06
2022-08-30T12:01:50.693Z,38.77
2022-08-30T12:07:00.180Z,36.76
2022-08-30T12:12:11.425Z,35.66
2022-08-30T12:17:45.471Z,36.35
2022-08-30T12:22:47.795Z,36.87
2022-08-30T12:27:50.899Z,39.76
2022-08-30T12:32:53.869Z,37.86
2022-08-30T12:38:05.438Z,36.80
2022-08-30T12:43:24.727Z,37.25
2022-08-30T12:48:28.441Z,35.65
2022-08-30T12:53:51.400Z,33.60
2022-08-30T12:58:53.645Z,39.61
2022-08-30T13:04:17.228Z,45.00
2022-08-30T13:09:32.499Z,48.30
2022-08-30T13:14:39.129Z,48.96
2022-08-30T13:19:56.373Z,44.95
2022-08-30T13:24:59.084Z,46.97
2022-08-30T13:30:27.771Z,50.64
2022-08-30T13:35:31.411Z,48.49
2022-08-30T13:40:34.078Z,44.62
2022-08-30T13:45:41.657Z,46.03
2022-08-30T13:50:44.195Z,50.59
2022-08-30T13:55:46.395Z,47.63
2022-08-30T14:00:50.634Z,45.37
2022-08-30T14:06:15.701Z,47.51
2022-08-30T14:11:21.240Z,49.94
2022-08-30T14:16:28.193Z,45.39
2022-08-30T14:21:30.828Z,41.26
2022-08-30T14:26:36.944Z,39.99
2022-08-30T14:31:40.624Z,39.58
2022-08-30T14:36:44.944Z,42.85
2022-08-30T14:41:50.752Z,40.77
2022-08-30T14:46:54.053Z,43.20
2022-08-30T14:51:56.634Z,39.51
2022-08-30T14:56:58.834Z,40.73
2022-08-30T15:02:01.772Z,40.70
2022-08-30T15:07:04.582Z,43.84
2022-08-30T15:12:06.799Z,42.38
2022-08-30T15:17:09.906Z,43.27
2022-08-30T15:22:12.176Z,42.39
2022-08-30T15:27:14.340Z,41.99
2022-08-30T15:32:16.936Z,43.06
2022-08-30T15:37:20.595Z,45.74
2022-08-30T15:42:22.932Z,49.50
2022-08-30T15:47:25.103Z,49.13
2022-08-30T15:52:27.513Z,46.95
2022-08-30T15:57:29.748Z,45.70
2022-08-30T16:02:32.160Z,44.59
2022-08-30T16:07:38.605Z,45.13
2022-08-30T16:12:42.669Z,45.43
2022-08-30T16:17:45.104Z,45.64
2022-08-30T16:22:47.401Z,46.85
2022-08-30T16:27:49.584Z,47.84
2022-08-30T16:32:51.768Z,50.66
2022-08-30T16:37:53.853Z,50.97
2022-08-30T16:42:56.200Z,52.98
2022-08-30T16:47:58.383Z,56.74
2022-08-30T16:53:00.603Z,60.34
2022-08-30T16:58:08.474Z,63.38
2022-08-30T17:03:13.482Z,66.25
2022-08-30T17:08:15.914Z,69.25
2022-08-30T17:13:18.393Z,74.70
2022-08-30T17:18:20.568Z,78.38
2022-08-30T17:23:22.986Z,81.68
2022-08-30T17:28:25.959Z,83.98
2022-08-30T17:33:28.944Z,87.15
2022-08-30T17:38:31.172Z,88.55
2022-08-30T17:43:35.354Z,88.87
2022-08-30T17:48:38.834Z,89.29
2022-08-30T17:53:41.099Z,89.84
2022-08-30T17:58:43.280Z,89.21
2022-08-30T18:03:45.833Z,90.62
2022-08-30T18:08:48.036Z,91.01
2022-08-30T18:13:50.231Z,91.54
2022-08-30T18:18:55.687Z,94.14
2022-08-30T18:23:59.865Z,96.36
2022-08-30T18:29:02.809Z,98.16
2022-08-30T18:34:05.052Z,99.99
2022-08-30T18:39:07.536Z,100.00
2022-08-30T18:44:26.853Z,100.00
2022-08-30T18:49:32.211Z,100.00
2022-08-30T18:54:49.781Z,100.00
2022-08-30T18:59:54.510Z,100.00
2022-08-30T19:04:56.684Z,100.00
2022-08-30T19:09:59.079Z,100.00
2022-08-30T19:15:02.188Z,100.00
2022-08-30T19:20:17.917Z,100.00
2022-08-30T19:25:22.259Z,100.00
2022-08-30T19:30:29.891Z,100.00
2022-08-30T19:35:32.682Z,100.00
2022-08-30T19:40:34.894Z,100.00
2022-08-30T19:45:37.634Z,100.00
2022-08-30T19:50:39.790Z,100.00
2022-08-30T19:55:42.824Z,100.00
2022-08-30T20:06:08.915Z,100.00
2022-08-30T20:11:19.052Z,100.00
2022-08-30T20:16:21.221Z,100.00
2022-08-30T20:21:32.119Z,100.00
2022-08-30T20:26:34.587Z,100.00
2022-08-30T20:31:38.931Z,100.00
2022-08-30T20:36:41.129Z,100.00
2022-08-30T20:41:44.477Z,100.00
2022-08-30T20:46:48.443Z,100.00
2022-08-30T20:51:54.091Z,100.00
2022-08-30T20:56:56.345Z,100.00
2022-08-30T21:02:00.085Z,100.00
2022-08-30T21:07:02.335Z,100.00
2022-08-30T21:12:05.042Z,100.00
2022-08-30T21:17:07.239Z,100.00
2022-08-30T21:22:09.944Z,100.00
2022-08-30T21:27:12.130Z,100.00
2022-08-30T21:32:14.622Z,100.00
2022-08-30T21:37:16.833Z,100.00
2022-08-30T21:42:19.008Z,100.00
2022-08-30T21:47:23.333Z,100.00
2022-08-30T21:52:26.231Z,100.00
2022-08-30T21:57:29.081Z,100.00
2022-08-30T22:02:32.972Z,100.00
2022-08-30T22:07:35.141Z,100.00
2022-08-30T22:12:37.424Z,100.00
2022-08-30T22:17:39.604Z,100.00
2022-08-30T22:22:41.773Z,100.00
2022-08-30T22:27:43.945Z,100.00
2022-08-30T22:32:46.100Z,100.00
2022-08-30T22:37:53.611Z,100.00
2022-08-30T22:42:55.907Z,100.00
2022-08-30T22:47:58.047Z,99.89
2022-08-30T22:53:00.302Z,95.03
2022-08-30T22:58:02.445Z,96.56
2022-08-30T23:03:04.657Z,95.12
2022-08-30T23:08:07.551Z,95.01
2022-08-30T23:13:09.982Z,94.20
2022-08-30T23:18:12.167Z,91.73
2022-08-30T23:23:14.581Z,90.68
2022-08-30T23:28:20.586Z,89.62
2022-08-30T23:33:22.986Z,89.36
2022-08-30T23:38:25.234Z,89.58
2022-08-30T23:43:27.503Z,88.34
2022-08-30T23:48:29.626Z,89.87
2022-08-30T23:53:31.778Z,86.33
2022-08-30T23:58:33.972Z,87.40
